Brick, New Jersey
Current Conditions -  °F | °C
As of 8:35 PM on Tuesday 25 Nov 2014 (Local Time) from KBLM Reporting Station
Clear Clear  
Wind Chill:   Ceiling: Unl
Heat Index:   Visibility: 10mi
Dew Point: -2°   Wind: 3mph
Humidity: 46%   Direction: 240°WSW
Pressure: 30.13"   Gusts: NA
Location:  40.04°N, 74.12°W
Report Text: KBLM 260135Z AUTO 24003KT 10SM CLR 09/M02 A3013 RMK AO1
Loading
Personal Weather Stations






























Interactive Weather Map New forecast layout! Learn more

10-Day Weather Forecast

Advertisements
Track Severe Weather on mobile